Historyczne dane pomiarowe

Dodano dane terminowe – wersja testowa.

Dane z okresu 1951-2019

Wersja bazy: 1.34 [2019-03-16, lista zmian], aktualizacja planowana na 2019-04-15

Dane meteo z obszaru Polski uzyskane na podstawie danych udostępnionych przez Instytut Meteorologii i Gospodarki Wodnej – Państwowy Instytut Badawczy.

 

Wybierz Datę:    

       

TemperaturaWilgotnośćZachmurzenieWiatrCiśnienieWidzialnośćZjawiska
 Data    tng td wb rh cc ccl cl cm ch dir g1 g2 mslp ppp      
1999-08-13 00:00:00 14.3--- 10.0 11.975wxwxwx4wx--1015.2 990.7 0.0---wx
1999-08-13 01:00:00 13.6--- 9.4 11.376wxwxwx3wx--1015.0 990.4----wx
1999-08-13 02:00:00 12.3--- 8.6 10.378wxwxwxwx0wx--1015.2 990.5----wx
1999-08-13 03:00:00 12.3--- 9.4 10.782wxwxwx2wx--1015.0 990.3----wx
1999-08-13 04:00:00 10.6--- 8.3 9.486wxwxwx2wx--1015.1 990.3----wx
1999-08-13 05:00:00 12.5--- 10.3 11.387wxwxwx0wx--1015.0 990.3----wx
1999-08-13 06:00:00 14.1--- 10.2 11.977wxwxwx3wx--1014.9 990.4 0.0---wx
1999-08-13 07:00:00 15.2--- 9.6 12.169wxwxwxwx3wx--1014.7 990.3----wx
1999-08-13 08:00:00 16.8--- 10.9 13.468wxwxwxwxwx3wx--1014.6 990.3----wx
1999-08-13 09:00:00 17.2--- 10.4 13.364wxwxwxwx4wx--1014.7 990.4----wx
1999-08-13 10:00:00 17.8--- 10.7 13.763wxwxwxwx4wx--1014.5 990.3----wx
1999-08-13 11:00:00 18.6--- 9.2 13.354wxwxwxwx3wx--1014.0 989.9----wx
1999-08-13 12:00:00 19.2--- 8.2 13.149wxwxwxwx3wx--1013.8 989.7 0.0---wx
1999-08-13 13:00:00 19.0--- 7.7 12.848wxwxwxwxwx3wx--1013.4 989.3----wx
1999-08-13 14:00:00 20.0--- 7.9 13.346wxwxwxwxwx3wx--1013.2 989.2----wx
1999-08-13 15:00:00 19.4--- 8.5 13.349wxwxwxwx4wx--1013.3 989.3----wx
1999-08-13 16:00:00 18.2--- 9.1 13.155wxwxwxwx5wx--1013.5 989.4----wx
1999-08-13 17:00:00 17.6--- 9.2 12.958wxwxwxwx5wx--1013.5 989.3----wx
1999-08-13 18:00:00 16.4--- 10.0 12.866wxwxwxwx2wx--1013.9 989.6 0.0---wx
1999-08-13 19:00:00 15.2--- 10.2 12.472wxwxwxwx1wx--1014.3 989.9----wx
1999-08-13 20:00:00 14.4--- 10.5 12.277wxwxwxwx3wx--1014.6 990.1----wx
1999-08-13 21:00:00 13.8--- 10.2 11.879wxwxwx3wx--1014.6 990.1----wx
1999-08-13 22:00:00 13.2--- 10.0 11.481wxwxwx3wx--1014.7 990.1----wx
1999-08-13 23:00:00 12.2--- 9.3 10.682wxwxwx4wx--1014.6 989.9----wx

 

Źródłem pochodzenia danych jest Instytut Meteorologii i Gospodarki Wodnej – Państwowy Instytut Badawczy. Dane Instytutu Meteorologii i Gospodarki Wodnej – Państwowego Instytutu Badawczego zostały przetworzone.

Dane źródłowe można odnaleźć na stronie https://dane.imgw.pl